createdAt,value
2022-08-07T00:02:35.209Z,13.12
2022-08-07T00:04:11.403Z,13.13
2022-08-07T00:06:51.763Z,13.12
2022-08-07T00:09:33.770Z,13.10
2022-08-07T00:12:06.395Z,13.14
2022-08-07T00:14:36.385Z,13.17
2022-08-07T00:17:07.472Z,13.17
2022-08-07T00:20:02.566Z,13.19
2022-08-07T00:22:35.211Z,13.20
2022-08-07T00:25:11.165Z,13.19
2022-08-07T00:27:52.509Z,13.19
2022-08-07T00:30:27.095Z,13.19
2022-08-07T00:33:04.482Z,13.22
2022-08-07T00:35:38.286Z,13.22
2022-08-07T00:38:09.128Z,13.19
2022-08-07T00:40:43.893Z,13.23
2022-08-07T00:44:01.374Z,13.16
2022-08-07T00:46:05.836Z,13.22
2022-08-07T00:48:42.191Z,13.20
2022-08-07T00:51:13.469Z,13.23
2022-08-07T00:53:50.482Z,13.26
2022-08-07T00:56:30.172Z,13.24
2022-08-07T00:59:01.687Z,13.13
2022-08-07T01:01:44.126Z,13.04
2022-08-07T01:04:24.690Z,13.00
2022-08-07T01:06:57.392Z,13.00
2022-08-07T01:10:04.538Z,12.99
2022-08-07T01:12:29.800Z,13.03
2022-08-07T01:15:03.911Z,13.00
2022-08-07T01:17:36.046Z,12.99
2022-08-07T01:20:16.839Z,12.96
2022-08-07T01:22:56.565Z,12.99
2022-08-07T01:25:56.140Z,13.03
2022-08-07T01:28:27.612Z,13.06
2022-08-07T01:31:00.550Z,13.06
2022-08-07T01:33:55.050Z,13.07
2022-08-07T01:36:36.437Z,13.07
2022-08-07T01:39:16.566Z,13.09
2022-08-07T01:42:36.861Z,13.10
2022-08-07T01:44:50.183Z,13.14
2022-08-07T01:48:20.014Z,13.17
2022-08-07T01:50:14.654Z,13.20
2022-08-07T01:52:49.440Z,13.23
2022-08-07T01:55:30.527Z,13.22
2022-08-07T01:58:29.016Z,13.19
2022-08-07T02:01:59.374Z,13.26
2022-08-07T02:04:15.332Z,13.28
2022-08-07T02:06:52.254Z,13.27
2022-08-07T02:09:33.809Z,13.20
2022-08-07T02:12:18.500Z,13.14
2022-08-07T02:14:56.917Z,13.12
2022-08-07T02:17:35.436Z,13.14
2022-08-07T02:20:17.209Z,13.17
2022-08-07T02:22:55.468Z,13.23
2022-08-07T02:26:11.399Z,13.22
2022-08-07T02:28:25.377Z,13.07
2022-08-07T02:31:10.137Z,12.99
2022-08-07T02:34:03.979Z,13.04
2022-08-07T02:36:51.133Z,13.16
2022-08-07T02:39:42.440Z,13.19
2022-08-07T02:42:16.548Z,13.22
2022-08-07T02:44:52.785Z,13.26
2022-08-07T02:47:25.581Z,13.22
2022-08-07T02:50:05.312Z,13.16
2022-08-07T02:52:44.150Z,13.13
2022-08-07T02:55:28.628Z,13.16
2022-08-07T02:58:19.060Z,13.14
2022-08-07T03:00:54.004Z,13.17
2022-08-07T03:03:29.474Z,13.12
2022-08-07T03:06:16.494Z,13.09
2022-08-07T03:08:56.752Z,13.07
2022-08-07T03:11:28.261Z,13.03
2022-08-07T03:14:01.573Z,13.00
2022-08-07T03:16:34.456Z,13.03
2022-08-07T03:19:05.638Z,13.10
2022-08-07T03:21:36.546Z,13.13
2022-08-07T03:24:20.658Z,13.17
2022-08-07T03:27:05.656Z,13.19
2022-08-07T03:29:54.124Z,13.19
2022-08-07T03:32:38.751Z,13.20
2022-08-07T03:35:18.353Z,13.22
2022-08-07T03:38:04.807Z,13.20
2022-08-07T03:40:37.232Z,13.24
2022-08-07T03:43:14.491Z,13.26
2022-08-07T03:45:53.657Z,13.20
2022-08-07T03:48:30.734Z,13.10
2022-08-07T03:51:03.775Z,13.03
2022-08-07T03:54:05.782Z,13.00
2022-08-07T03:56:35.481Z,12.99
2022-08-07T03:59:13.399Z,13.03
2022-08-07T04:01:48.288Z,12.99
2022-08-07T04:04:24.148Z,12.97
2022-08-07T04:07:00.129Z,13.02
2022-08-07T04:09:44.570Z,13.02
2022-08-07T04:12:25.027Z,13.03
2022-08-07T04:15:01.130Z,13.02
2022-08-07T04:18:58.180Z,13.07
2022-08-07T04:20:26.058Z,13.09
2022-08-07T04:23:01.178Z,13.10
2022-08-07T04:25:42.200Z,13.03
2022-08-07T04:28:15.757Z,13.09
2022-08-07T04:30:56.987Z,13.13
2022-08-07T04:33:32.777Z,13.17
2022-08-07T04:36:10.070Z,13.22
2022-08-07T04:38:41.785Z,13.20
2022-08-07T04:41:18.196Z,13.20
2022-08-07T04:44:12.928Z,13.16
2022-08-07T04:47:11.130Z,13.07
2022-08-07T04:50:19.458Z,13.02
2022-08-07T04:54:05.826Z,12.99
2022-08-07T04:58:09.810Z,13.00
2022-08-07T05:00:10.703Z,13.03
2022-08-07T05:02:37.305Z,13.12
2022-08-07T05:05:53.291Z,13.10
2022-08-07T05:08:59.225Z,13.14
2022-08-07T05:11:56.862Z,13.13
2022-08-07T05:14:53.904Z,13.07
2022-08-07T05:17:50.938Z,13.10
2022-08-07T05:20:28.005Z,13.10
2022-08-07T05:23:16.179Z,13.10
2022-08-07T05:26:11.802Z,13.12
2022-08-07T05:28:48.458Z,13.19
2022-08-07T05:31:34.933Z,13.22
2022-08-07T05:34:15.671Z,13.24
2022-08-07T05:36:53.600Z,13.19
2022-08-07T05:40:13.416Z,13.16
2022-08-07T05:42:34.422Z,13.20
2022-08-07T05:45:26.379Z,13.22
2022-08-07T05:48:06.650Z,13.22
2022-08-07T05:50:43.361Z,13.27
2022-08-07T05:54:12.531Z,13.27
2022-08-07T05:56:08.404Z,13.28
2022-08-07T05:58:52.361Z,13.27
2022-08-07T06:01:34.848Z,13.28
2022-08-07T06:04:10.194Z,13.28
2022-08-07T06:06:46.316Z,13.22
2022-08-07T06:09:20.576Z,13.24
2022-08-07T06:12:11.535Z,13.22
2022-08-07T06:14:49.467Z,13.17
2022-08-07T06:17:22.483Z,13.12
2022-08-07T06:20:05.626Z,13.14
2022-08-07T06:22:40.230Z,13.10
2022-08-07T06:25:34.918Z,13.10
2022-08-07T06:28:14.920Z,13.06
2022-08-07T06:30:50.811Z,13.12
2022-08-07T06:33:26.215Z,13.12
2022-08-07T06:36:12.777Z,13.07
2022-08-07T06:40:13.042Z,13.06
2022-08-07T06:42:01.879Z,13.10
2022-08-07T06:44:54.415Z,13.12
2022-08-07T06:47:27.149Z,13.13
2022-08-07T06:50:00.020Z,13.13
2022-08-07T06:52:39.683Z,13.19
2022-08-07T06:55:34.199Z,13.20
2022-08-07T06:58:16.692Z,13.23
2022-08-07T07:01:00.596Z,13.22
2022-08-07T07:03:49.018Z,13.20
2022-08-07T07:06:26.046Z,13.17
2022-08-07T07:08:58.163Z,13.17
2022-08-07T07:12:08.937Z,13.17
2022-08-07T07:14:22.386Z,13.24
2022-08-07T07:16:56.218Z,13.28
2022-08-07T07:19:55.020Z,13.30
2022-08-07T07:22:36.093Z,13.34
2022-08-07T07:26:30.591Z,13.36
2022-08-07T07:28:42.496Z,13.39
2022-08-07T07:31:12.587Z,13.37
2022-08-07T07:33:56.474Z,13.34
2022-08-07T07:36:32.246Z,13.37
2022-08-07T07:39:04.397Z,13.40
2022-08-07T07:42:01.903Z,13.41
2022-08-07T07:44:29.485Z,13.44
2022-08-07T07:47:14.014Z,13.44
2022-08-07T07:50:34.583Z,13.41
2022-08-07T07:52:40.219Z,13.41
2022-08-07T07:55:11.840Z,13.43
2022-08-07T07:57:52.916Z,13.47
2022-08-07T08:00:29.448Z,13.46
2022-08-07T08:03:16.551Z,13.51
2022-08-07T08:06:06.627Z,13.48
2022-08-07T08:08:44.792Z,13.44
2022-08-07T08:11:47.377Z,13.43
2022-08-07T08:14:09.171Z,13.40
2022-08-07T08:16:50.232Z,13.36
2022-08-07T08:20:18.198Z,13.33
2022-08-07T08:22:37.457Z,13.23
2022-08-07T08:25:48.992Z,13.23
2022-08-07T08:28:37.614Z,13.27
2022-08-07T08:31:29.951Z,13.28
2022-08-07T08:34:12.522Z,13.28
2022-08-07T08:36:59.424Z,13.28
2022-08-07T08:39:39.019Z,13.30
2022-08-07T08:42:27.930Z,13.28
2022-08-07T08:45:13.341Z,13.30
2022-08-07T08:48:07.394Z,13.30
2022-08-07T08:50:46.908Z,13.23
2022-08-07T08:53:40.126Z,13.16
2022-08-07T08:56:32.263Z,13.14
2022-08-07T08:59:27.716Z,13.06
2022-08-07T09:02:34.594Z,13.02
2022-08-07T09:05:26.706Z,12.92
2022-08-07T09:08:40.138Z,12.92
2022-08-07T09:11:24.822Z,12.81
2022-08-07T09:14:40.841Z,12.71
2022-08-07T09:17:59.585Z,12.59
2022-08-07T09:21:13.813Z,12.52
2022-08-07T09:24:32.199Z,12.48
2022-08-07T09:27:27.377Z,12.42
2022-08-07T09:30:08.402Z,12.38
2022-08-07T09:32:39.583Z,12.32
2022-08-07T09:36:00.983Z,12.31
2022-08-07T09:38:28.037Z,12.28
2022-08-07T09:41:04.072Z,12.27
2022-08-07T09:44:05.525Z,12.32
2022-08-07T09:47:55.247Z,12.41
2022-08-07T09:50:35.979Z,12.45
2022-08-07T09:53:12.564Z,12.49
2022-08-07T09:56:06.904Z,12.51
2022-08-07T09:59:07.799Z,12.58
2022-08-07T10:02:06.224Z,12.61
2022-08-07T10:05:12.407Z,12.65
2022-08-07T10:08:21.431Z,12.72
2022-08-07T10:11:16.741Z,12.73
2022-08-07T10:14:02.336Z,12.78
2022-08-07T10:16:51.721Z,12.78
2022-08-07T10:19:45.488Z,12.85
2022-08-07T10:22:45.329Z,12.89
2022-08-07T10:25:42.224Z,12.89
2022-08-07T10:28:37.043Z,12.93
2022-08-07T10:31:40.041Z,13.02
2022-08-07T10:34:34.865Z,13.10
2022-08-07T10:37:48.702Z,13.17
2022-08-07T10:40:43.448Z,13.12
2022-08-07T10:43:34.358Z,13.04
2022-08-07T10:46:15.805Z,13.14
2022-08-07T10:48:59.560Z,13.20
2022-08-07T10:52:02.320Z,13.27
2022-08-07T10:54:39.492Z,13.34
2022-08-07T10:57:34.637Z,13.37
2022-08-07T11:00:36.177Z,13.43
2022-08-07T11:03:19.483Z,13.46
2022-08-07T11:06:08.522Z,13.61
2022-08-07T11:08:54.440Z,13.67
2022-08-07T11:11:35.705Z,13.72
2022-08-07T11:14:57.561Z,13.74
2022-08-07T11:17:45.556Z,13.75
2022-08-07T11:20:24.367Z,13.89
2022-08-07T11:23:30.315Z,13.99
2022-08-07T11:26:20.626Z,14.08
2022-08-07T11:29:41.883Z,14.18
2022-08-07T11:32:53.667Z,14.43
2022-08-07T11:35:59.746Z,14.50
2022-08-07T11:38:57.401Z,14.59
2022-08-07T11:42:01.921Z,14.63
2022-08-07T11:44:52.340Z,14.73
2022-08-07T11:47:39.221Z,14.76
2022-08-07T11:50:57.773Z,14.70
2022-08-07T11:54:09.754Z,14.84
2022-08-07T11:57:19.201Z,15.01
2022-08-07T12:00:19.073Z,15.15
2022-08-07T12:03:44.174Z,15.22
2022-08-07T12:06:37.673Z,15.32
2022-08-07T12:09:39.262Z,15.48
2022-08-07T12:12:18.926Z,15.55
2022-08-07T12:15:01.158Z,15.72
2022-08-07T12:17:58.716Z,16.01
2022-08-07T12:20:30.629Z,16.06
2022-08-07T12:24:04.825Z,15.89
2022-08-07T12:26:41.971Z,16.01
2022-08-07T12:29:38.358Z,16.25
2022-08-07T12:32:15.054Z,16.44
2022-08-07T12:34:49.157Z,16.48
2022-08-07T12:38:08.989Z,16.62
2022-08-07T12:40:47.429Z,17.15
2022-08-07T12:44:03.838Z,17.36
2022-08-07T12:46:26.271Z,17.74
2022-08-07T12:49:39.544Z,18.18
2022-08-07T12:52:18.044Z,18.49
2022-08-07T12:55:03.904Z,18.47
2022-08-07T12:58:00.891Z,18.32
2022-08-07T13:00:50.046Z,18.19
2022-08-07T13:04:01.941Z,17.74
2022-08-07T13:06:54.190Z,17.46
2022-08-07T13:10:20.478Z,17.33
2022-08-07T13:13:04.050Z,17.31
2022-08-07T13:15:54.066Z,17.23
2022-08-07T13:18:36.608Z,17.23
2022-08-07T13:21:37.725Z,17.20
2022-08-07T13:24:25.813Z,17.23
2022-08-07T13:28:06.273Z,16.98
2022-08-07T13:30:40.285Z,16.78
2022-08-07T13:34:30.086Z,16.76
2022-08-07T13:36:25.696Z,17.10
2022-08-07T13:39:12.684Z,17.24
2022-08-07T13:41:54.647Z,17.26
2022-08-07T13:44:34.565Z,17.18
2022-08-07T13:47:15.848Z,16.98
2022-08-07T13:50:33.176Z,16.82
2022-08-07T13:52:47.860Z,16.68
2022-08-07T13:55:26.320Z,16.68
2022-08-07T13:58:32.014Z,16.64
2022-08-07T14:01:12.462Z,16.64
2022-08-07T14:04:05.663Z,16.55
2022-08-07T14:06:38.597Z,16.68
2022-08-07T14:10:00.435Z,16.85
2022-08-07T14:12:10.548Z,16.92
2022-08-07T14:14:44.743Z,16.80
2022-08-07T14:17:51.563Z,16.92
2022-08-07T14:20:42.942Z,16.99
2022-08-07T14:23:10.624Z,17.46
2022-08-07T14:25:45.861Z,17.67
2022-08-07T14:28:33.214Z,17.68
2022-08-07T14:31:13.706Z,17.88
2022-08-07T14:33:48.761Z,17.92
2022-08-07T14:36:21.795Z,17.87
2022-08-07T14:38:56.892Z,17.74
2022-08-07T14:42:20.568Z,17.87
2022-08-07T14:44:28.471Z,17.60
2022-08-07T14:49:58.998Z,17.43
2022-08-07T14:52:35.474Z,17.47
2022-08-07T14:55:09.203Z,17.66
2022-08-07T14:57:58.585Z,17.85
2022-08-07T15:00:35.749Z,17.84
2022-08-07T15:06:04.159Z,17.70
2022-08-07T15:08:49.920Z,17.78
2022-08-07T15:11:53.411Z,17.85
2022-08-07T15:14:30.689Z,18.25
2022-08-07T15:17:12.889Z,18.28
2022-08-07T15:20:32.600Z,18.19
2022-08-07T15:22:56.833Z,18.06
2022-08-07T15:25:38.783Z,17.89
2022-08-07T15:28:35.159Z,17.75
2022-08-07T15:31:08.358Z,17.55
2022-08-07T15:33:42.982Z,17.82
2022-08-07T15:36:15.435Z,17.84
2022-08-07T15:42:42.296Z,17.41
2022-08-07T15:44:58.622Z,17.31
2022-08-07T15:48:00.306Z,17.37
2022-08-07T15:50:37.669Z,17.31
2022-08-07T15:53:51.971Z,17.20
2022-08-07T15:56:24.601Z,17.24
2022-08-07T15:59:00.566Z,17.30
2022-08-07T16:01:39.385Z,17.22
2022-08-07T16:04:15.783Z,17.30
2022-08-07T16:06:55.583Z,17.33
2022-08-07T16:09:42.109Z,17.24
2022-08-07T16:12:29.166Z,17.18
2022-08-07T16:15:05.629Z,17.23
2022-08-07T16:18:03.727Z,17.24
2022-08-07T16:20:41.634Z,17.19
2022-08-07T16:23:25.155Z,17.02
2022-08-07T16:26:14.640Z,16.96
2022-08-07T16:30:05.456Z,17.00
2022-08-07T16:32:07.215Z,17.02
2022-08-07T16:35:52.167Z,16.99
2022-08-07T16:39:00.738Z,16.93
2022-08-07T16:41:41.473Z,16.98
2022-08-07T16:45:03.816Z,16.88
2022-08-07T16:47:52.938Z,16.85
2022-08-07T16:51:22.670Z,16.85
2022-08-07T16:54:32.907Z,16.82
2022-08-07T16:58:00.803Z,16.64
2022-08-07T17:00:19.298Z,16.58
2022-08-07T17:06:29.557Z,16.55
2022-08-07T17:10:06.560Z,16.54
2022-08-07T17:12:44.766Z,16.57
2022-08-07T17:15:16.372Z,16.57
2022-08-07T17:18:01.030Z,16.62
2022-08-07T17:20:38.846Z,16.76
2022-08-07T17:23:38.813Z,16.72
2022-08-07T17:26:34.873Z,16.69
2022-08-07T17:30:16.160Z,16.58
2022-08-07T17:32:49.505Z,16.55
2022-08-07T17:35:56.066Z,16.54
2022-08-07T17:38:51.442Z,16.48
2022-08-07T17:42:04.102Z,16.45
2022-08-07T17:44:49.816Z,16.45
2022-08-07T17:47:42.701Z,16.54
2022-08-07T17:50:20.424Z,16.59
2022-08-07T17:54:00.628Z,16.59
2022-08-07T17:56:28.759Z,16.59
2022-08-07T17:59:03.913Z,16.54
2022-08-07T18:02:05.684Z,16.44
2022-08-07T18:05:21.324Z,16.32
2022-08-07T18:08:15.453Z,16.24
2022-08-07T18:12:12.070Z,16.18
2022-08-07T18:14:09.242Z,16.18
2022-08-07T18:16:57.813Z,16.24
2022-08-07T18:21:12.396Z,16.24
2022-08-07T18:22:42.414Z,16.24
2022-08-07T18:25:40.307Z,16.25
2022-08-07T18:28:35.434Z,16.21
2022-08-07T18:31:18.647Z,16.18
2022-08-07T18:34:37.225Z,16.21
2022-08-07T18:37:09.333Z,16.27
2022-08-07T18:40:06.786Z,16.22
2022-08-07T18:43:36.832Z,16.17
2022-08-07T18:46:30.830Z,16.16
2022-08-07T18:50:32.680Z,16.11
2022-08-07T18:52:54.280Z,16.14
2022-08-07T18:55:59.809Z,16.09
2022-08-07T18:58:51.783Z,16.09
2022-08-07T19:02:18.161Z,16.14
2022-08-07T19:04:39.708Z,16.17
2022-08-07T19:07:51.664Z,16.14
2022-08-07T19:10:53.353Z,16.03
2022-08-07T19:13:49.935Z,15.83
2022-08-07T19:17:05.890Z,15.91
2022-08-07T19:19:37.480Z,15.94
2022-08-07T19:22:30.959Z,15.93
2022-08-07T19:25:06.486Z,15.96
2022-08-07T19:28:29.726Z,15.96
2022-08-07T19:30:55.809Z,16.00
2022-08-07T19:33:35.014Z,15.89
2022-08-07T19:36:05.677Z,15.85
2022-08-07T19:38:53.394Z,15.91
2022-08-07T19:41:44.258Z,15.96
2022-08-07T19:44:22.126Z,15.90
2022-08-07T19:47:10.830Z,15.87
2022-08-07T19:49:58.372Z,15.90
2022-08-07T19:52:34.060Z,15.78
2022-08-07T19:55:05.878Z,15.70
2022-08-07T19:58:01.098Z,15.73
2022-08-07T20:00:35.878Z,15.78
2022-08-07T20:03:33.979Z,15.83
2022-08-07T20:06:06.049Z,15.82
2022-08-07T20:08:48.722Z,15.78
2022-08-07T20:12:01.097Z,15.76
2022-08-07T20:14:23.202Z,15.87
2022-08-07T20:17:07.135Z,15.90
2022-08-07T20:19:49.482Z,15.91
2022-08-07T20:22:33.844Z,15.96
2022-08-07T20:25:12.827Z,16.00
2022-08-07T20:27:58.562Z,16.07
2022-08-07T20:30:47.054Z,16.09
2022-08-07T20:33:36.271Z,16.07
2022-08-07T20:36:10.221Z,16.10
2022-08-07T20:38:59.818Z,16.09
2022-08-07T20:41:38.187Z,16.11
2022-08-07T20:44:12.776Z,16.14
2022-08-07T20:46:45.675Z,16.14
2022-08-07T20:49:59.076Z,16.13
2022-08-07T20:52:29.855Z,16.11
2022-08-07T20:55:14.437Z,16.10
2022-08-07T20:57:59.887Z,16.07
2022-08-07T21:00:45.521Z,16.03
2022-08-07T21:03:23.203Z,16.06
2022-08-07T21:06:21.752Z,16.06
2022-08-07T21:09:13.632Z,16.06
2022-08-07T21:11:50.894Z,16.04
2022-08-07T21:14:32.845Z,16.13
2022-08-07T21:18:01.849Z,16.13
2022-08-07T21:20:07.366Z,16.11
2022-08-07T21:22:51.131Z,16.18
2022-08-07T21:25:56.352Z,16.20
2022-08-07T21:29:12.947Z,16.24
2022-08-07T21:32:46.755Z,16.21
2022-08-07T21:35:11.246Z,16.22
2022-08-07T21:37:58.580Z,16.20
2022-08-07T21:41:11.045Z,16.22
2022-08-07T21:43:55.779Z,16.20
2022-08-07T21:46:33.075Z,16.22
2022-08-07T21:50:02.396Z,16.24
2022-08-07T21:52:54.356Z,16.30
2022-08-07T21:55:33.130Z,16.31
2022-08-07T21:58:37.063Z,16.32
2022-08-07T22:02:04.396Z,16.31
2022-08-07T22:04:30.215Z,16.25
2022-08-07T22:07:31.848Z,16.28
2022-08-07T22:10:21.326Z,16.27
2022-08-07T22:13:02.322Z,16.21
2022-08-07T22:16:44.691Z,16.16
2022-08-07T22:19:07.422Z,16.10
2022-08-07T22:22:01.865Z,16.10
2022-08-07T22:25:08.219Z,16.14
2022-08-07T22:28:29.599Z,16.16
2022-08-07T22:30:54.916Z,16.13
2022-08-07T22:33:52.632Z,16.14
2022-08-07T22:36:33.105Z,16.14
2022-08-07T22:39:52.529Z,16.17
2022-08-07T22:42:30.474Z,16.07
2022-08-07T22:45:11.109Z,15.99
2022-08-07T22:48:54.828Z,15.99
2022-08-07T22:51:51.982Z,16.00
2022-08-07T22:54:48.866Z,16.06
2022-08-07T22:57:40.914Z,16.04
2022-08-07T23:00:28.210Z,15.97
2022-08-07T23:03:28.285Z,16.00
2022-08-07T23:06:22.237Z,16.00
2022-08-07T23:10:00.618Z,16.03
2022-08-07T23:12:46.724Z,16.00
2022-08-07T23:16:07.181Z,16.01
2022-08-07T23:18:42.530Z,16.04
2022-08-07T23:21:36.435Z,16.07
2022-08-07T23:24:17.032Z,16.06
2022-08-07T23:27:33.512Z,16.00
2022-08-07T23:30:37.032Z,15.99
2022-08-07T23:34:36.600Z,15.94
2022-08-07T23:36:43.242Z,15.86
2022-08-07T23:39:26.173Z,15.82
2022-08-07T23:42:25.557Z,15.79
2022-08-07T23:45:15.158Z,15.74
2022-08-07T23:48:15.628Z,15.72
2022-08-07T23:51:03.016Z,15.79
2022-08-07T23:53:51.825Z,15.82
2022-08-07T23:56:39.078Z,15.82
